createdAt,value
2018-09-04T00:01:42.452Z,98326.00
2018-09-04T00:04:12.284Z,98330.00
2018-09-04T00:06:41.705Z,98332.00
2018-09-04T00:09:11.767Z,98332.00
2018-09-04T00:11:41.445Z,98334.00
2018-09-04T00:14:11.145Z,98337.00
2018-09-04T00:16:40.785Z,98339.00
2018-09-04T00:19:10.205Z,98336.00
2018-09-04T00:21:39.724Z,98339.00
2018-09-04T00:24:09.178Z,98337.00
2018-09-04T00:26:38.684Z,98337.00
2018-09-04T00:29:08.225Z,98330.00
2018-09-04T00:31:37.744Z,98337.00
2018-09-04T00:34:07.664Z,98340.00
2018-09-04T00:36:37.385Z,98336.00
2018-09-04T00:39:07.384Z,98335.00
2018-09-04T00:41:36.984Z,98330.00
2018-09-04T00:44:06.504Z,98331.00
2018-09-04T00:46:36.207Z,98325.00
2018-09-04T00:49:05.705Z,98321.00
2018-09-04T00:51:35.085Z,98333.00
2018-09-04T00:54:04.603Z,98333.00
2018-09-04T00:56:34.025Z,98334.00
2018-09-04T00:59:03.684Z,98335.00
2018-09-04T01:01:33.465Z,98335.00
2018-09-04T01:04:02.901Z,98337.00
2018-09-04T01:06:32.525Z,98331.00
2018-09-04T01:09:02.164Z,98335.00
2018-09-04T01:11:31.985Z,98339.00
2018-09-04T01:14:01.804Z,98346.00
2018-09-04T01:16:31.524Z,98341.00
2018-09-04T01:19:01.207Z,98348.00
2018-09-04T01:21:30.699Z,98355.00
2018-09-04T01:24:00.288Z,98363.00
2018-09-04T01:26:29.824Z,98359.00
2018-09-04T01:28:59.525Z,98354.00
2018-09-04T01:31:29.505Z,98349.00
2018-09-04T01:34:00.685Z,98355.00
2018-09-04T01:36:31.194Z,98348.00
2018-09-04T01:39:00.697Z,98349.00
2018-09-04T01:41:30.597Z,98349.00
2018-09-04T01:44:00.155Z,98345.00
2018-09-04T01:46:29.726Z,98349.00
2018-09-04T01:48:59.237Z,98343.00
2018-09-04T01:51:28.812Z,98346.00
2018-09-04T01:53:58.337Z,98345.00
2018-09-04T01:56:27.833Z,98345.00
2018-09-04T01:58:57.381Z,98335.00
2018-09-04T02:01:27.037Z,98340.00
2018-09-04T02:03:56.992Z,98335.00
2018-09-04T02:06:27.017Z,98332.00
2018-09-04T02:08:56.736Z,98333.00
2018-09-04T02:11:26.177Z,98338.00
2018-09-04T02:13:55.933Z,98331.00
2018-09-04T02:16:25.457Z,98337.00
2018-09-04T02:18:55.076Z,98338.00
2018-09-04T02:21:24.856Z,98339.00
2018-09-04T02:23:54.417Z,98332.00
2018-09-04T02:26:54.536Z,98335.00
2018-09-04T02:29:23.996Z,98336.00
2018-09-04T02:31:53.997Z,98341.00
2018-09-04T02:34:23.958Z,98339.00
2018-09-04T02:36:53.436Z,98343.00
2018-09-04T02:39:23.017Z,98342.00
2018-09-04T02:41:52.397Z,98335.00
2018-09-04T02:44:22.197Z,98335.00
2018-09-04T02:46:51.638Z,98328.00
2018-09-04T02:49:21.365Z,98333.00
2018-09-04T02:51:50.877Z,98332.00
2018-09-04T02:54:20.457Z,98327.00
2018-09-04T02:56:50.160Z,98327.00
2018-09-04T02:59:20.021Z,98325.00
2018-09-04T03:01:49.780Z,98315.00
2018-09-04T03:04:19.417Z,98323.00
2018-09-04T03:06:48.846Z,98325.00
2018-09-04T03:09:18.596Z,98320.00
2018-09-04T03:11:48.095Z,98318.00
2018-09-04T03:14:17.476Z,98311.00
2018-09-04T03:16:47.119Z,98315.00
2018-09-04T03:19:16.656Z,98315.00
2018-09-04T03:21:46.117Z,98308.00
2018-09-04T03:24:15.697Z,98312.00
2018-09-04T03:26:45.077Z,98306.00
2018-09-04T03:29:14.556Z,98312.00
2018-09-04T03:31:43.957Z,98307.00
2018-09-04T03:34:13.576Z,98307.00
2018-09-04T03:36:43.217Z,98311.00
2018-09-04T03:39:12.780Z,98305.00
2018-09-04T03:41:42.497Z,98303.00
2018-09-04T03:44:12.333Z,98304.00
2018-09-04T03:46:41.798Z,98302.00
2018-09-04T03:49:11.356Z,98308.00
2018-09-04T03:51:40.838Z,98313.00
2018-09-04T03:54:10.397Z,98313.00
2018-09-04T03:56:40.288Z,98319.00
2018-09-04T03:59:09.797Z,98316.00
2018-09-04T04:01:39.339Z,98306.00
2018-09-04T04:04:08.896Z,98318.00
2018-09-04T04:06:38.376Z,98314.00
2018-09-04T04:09:10.456Z,98314.00
2018-09-04T04:11:39.937Z,98321.00
2018-09-04T04:14:09.697Z,98312.00
2018-09-04T04:16:39.177Z,98322.00
2018-09-04T04:19:08.796Z,98326.00
2018-09-04T04:21:38.397Z,98333.00
2018-09-04T04:24:07.877Z,98335.00
2018-09-04T04:26:37.257Z,98336.00
2018-09-04T04:29:06.896Z,98341.00
2018-09-04T04:31:36.496Z,98348.00
2018-09-04T04:34:06.636Z,98353.00
2018-09-04T04:36:36.136Z,98352.00
2018-09-04T04:39:08.578Z,98349.00
2018-09-04T04:41:38.036Z,98359.00
2018-09-04T04:44:07.596Z,98358.00
2018-09-04T04:46:37.656Z,98357.00
2018-09-04T04:49:07.596Z,98365.00
2018-09-04T04:51:37.116Z,98368.00
2018-09-04T04:54:06.816Z,98368.00
2018-09-04T04:56:36.596Z,98360.00
2018-09-04T04:59:06.238Z,98359.00
2018-09-04T05:01:35.736Z,98370.00
2018-09-04T05:04:05.296Z,98368.00
2018-09-04T05:06:34.956Z,98367.00
2018-09-04T05:09:06.577Z,98376.00
2018-09-04T05:11:36.060Z,98378.00
2018-09-04T05:14:05.857Z,98379.00
2018-09-04T05:16:35.357Z,98383.00
2018-09-04T05:19:05.016Z,98383.00
2018-09-04T05:21:34.616Z,98382.00
2018-09-04T05:24:04.568Z,98390.00
2018-09-04T05:26:34.336Z,98388.00
2018-09-04T05:29:03.816Z,98388.00
2018-09-04T05:31:38.036Z,98382.00
2018-09-04T05:34:07.916Z,98383.00
2018-09-04T05:36:37.327Z,98378.00
2018-09-04T05:39:10.898Z,98384.00
2018-09-04T05:41:40.436Z,98375.00
2018-09-04T05:44:10.017Z,98377.00
2018-09-04T05:46:42.116Z,98372.00
2018-09-04T05:49:12.777Z,98369.00
2018-09-04T05:51:42.356Z,98367.00
2018-09-04T05:54:11.867Z,98367.00
2018-09-04T05:56:41.356Z,98366.00
2018-09-04T05:59:10.881Z,98373.00
2018-09-04T06:01:40.377Z,98368.00
2018-09-04T06:04:09.936Z,98372.00
2018-09-04T06:06:39.435Z,98382.00
2018-09-04T06:09:08.936Z,98372.00
2018-09-04T06:11:38.940Z,98383.00
2018-09-04T06:14:08.396Z,98380.00
2018-09-04T06:16:37.976Z,98379.00
2018-09-04T06:19:07.596Z,98379.00
2018-09-04T06:21:37.196Z,98375.00
2018-09-04T06:24:06.756Z,98381.00
2018-09-04T06:26:36.172Z,98378.00
2018-09-04T06:29:05.776Z,98378.00
2018-09-04T06:31:35.277Z,98380.00
2018-09-04T06:34:05.186Z,98380.00
2018-09-04T06:36:34.708Z,98382.00
2018-09-04T06:39:05.717Z,98379.00
2018-09-04T06:41:35.286Z,98382.00
2018-09-04T06:44:04.936Z,98380.00
2018-09-04T06:46:34.478Z,98379.00
2018-09-04T06:49:03.981Z,98388.00
2018-09-04T06:51:33.497Z,98378.00
2018-09-04T06:54:02.997Z,98384.00
2018-09-04T06:56:32.539Z,98391.00
2018-09-04T06:59:02.017Z,98382.00
2018-09-04T07:01:31.827Z,98386.00
2018-09-04T07:04:01.336Z,98384.00
2018-09-04T07:06:30.876Z,98386.00
2018-09-04T07:09:00.330Z,98391.00
2018-09-04T07:11:29.936Z,98397.00
2018-09-04T07:13:59.297Z,98396.00
2018-09-04T07:16:29.157Z,98398.00
2018-09-04T07:18:58.677Z,98392.00
2018-09-04T07:21:28.357Z,98396.00
2018-09-04T07:23:57.823Z,98400.00
2018-09-04T07:26:27.840Z,98400.00
2018-09-04T07:28:57.317Z,98401.00
2018-09-04T07:31:26.916Z,98399.00
2018-09-04T07:33:56.396Z,98388.00
2018-09-04T07:36:26.095Z,98396.00
2018-09-04T07:38:55.898Z,98392.00
2018-09-04T07:41:25.856Z,98396.00
2018-09-04T07:43:55.436Z,98400.00
2018-09-04T07:46:24.997Z,98395.00
2018-09-04T07:48:54.997Z,98401.00
2018-09-04T07:51:24.618Z,98400.00
2018-09-04T07:53:54.151Z,98399.00
2018-09-04T07:56:23.876Z,98394.00
2018-09-04T07:58:53.556Z,98400.00
2018-09-04T08:01:23.136Z,98393.00
2018-09-04T08:03:52.677Z,98392.00
2018-09-04T08:06:22.578Z,98402.00
2018-09-04T08:08:52.417Z,98405.00
2018-09-04T08:11:22.116Z,98408.00
2018-09-04T08:13:51.596Z,98408.00
2018-09-04T08:16:21.146Z,98409.00
2018-09-04T08:18:50.717Z,98413.00
2018-09-04T08:21:20.598Z,98405.00
2018-09-04T08:23:50.037Z,98412.00
2018-09-04T08:26:19.957Z,98409.00
2018-09-04T08:28:49.500Z,98402.00
2018-09-04T08:31:19.357Z,98403.00
2018-09-04T08:33:48.877Z,98406.00
2018-09-04T08:36:18.677Z,98407.00
2018-09-04T08:38:49.496Z,98411.00
2018-09-04T08:41:19.656Z,98397.00
2018-09-04T08:43:49.668Z,98399.00
2018-09-04T08:46:19.417Z,98390.00
2018-09-04T08:48:48.836Z,98395.00
2018-09-04T08:51:18.296Z,98396.00
2018-09-04T08:53:48.157Z,98396.00
2018-09-04T08:56:17.597Z,98397.00
2018-09-04T08:58:47.270Z,98394.00
2018-09-04T09:01:16.736Z,98382.00
2018-09-04T09:03:46.424Z,98385.00
2018-09-04T09:06:15.916Z,98384.00
2018-09-04T09:08:45.617Z,98382.00
2018-09-04T09:11:15.177Z,98376.00
2018-09-04T09:13:45.037Z,98380.00
2018-09-04T09:16:14.977Z,98379.00
2018-09-04T09:18:44.534Z,98383.00
2018-09-04T09:21:14.117Z,98391.00
2018-09-04T09:23:43.693Z,98386.00
2018-09-04T09:26:13.278Z,98383.00
2018-09-04T09:28:42.760Z,98384.00
2018-09-04T09:31:12.539Z,98386.00
2018-09-04T09:33:41.977Z,98390.00
2018-09-04T09:36:12.200Z,98380.00
2018-09-04T09:38:42.877Z,98381.00
2018-09-04T09:41:12.657Z,98378.00
2018-09-04T09:43:42.577Z,98370.00
2018-09-04T09:46:12.978Z,98367.00
2018-09-04T09:48:43.108Z,98374.00
2018-09-04T09:51:13.077Z,98367.00
2018-09-04T09:53:43.088Z,98360.00
2018-09-04T09:56:12.879Z,98354.00
2018-09-04T09:58:42.557Z,98362.00
2018-09-04T10:01:18.387Z,98368.00
2018-09-04T10:03:53.830Z,98356.00
2018-09-04T10:06:23.448Z,98358.00
2018-09-04T10:08:52.997Z,98363.00
2018-09-04T10:11:22.957Z,98356.00
2018-09-04T10:13:52.659Z,98352.00
2018-09-04T10:16:22.157Z,98354.00
2018-09-04T10:18:52.017Z,98354.00
2018-09-04T10:21:21.788Z,98346.00
2018-09-04T10:23:51.837Z,98351.00
2018-09-04T10:26:21.249Z,98349.00
2018-09-04T10:28:50.591Z,98349.00
2018-09-04T10:31:20.090Z,98360.00
2018-09-04T10:33:49.611Z,98352.00
2018-09-04T10:36:19.095Z,98361.00
2018-09-04T10:38:48.683Z,98366.00
2018-09-04T10:41:18.159Z,98356.00
2018-09-04T10:43:47.561Z,98350.00
2018-09-04T10:46:17.211Z,98350.00
2018-09-04T10:48:46.768Z,98348.00
2018-09-04T10:51:16.803Z,98352.00
2018-09-04T10:53:46.665Z,98353.00
2018-09-04T10:56:16.305Z,98355.00
2018-09-04T10:58:46.145Z,98352.00
2018-09-04T11:01:15.658Z,98350.00
2018-09-04T11:03:45.316Z,98351.00
2018-09-04T11:06:14.742Z,98355.00
2018-09-04T11:08:44.237Z,98350.00
2018-09-04T11:11:14.176Z,98353.00
2018-09-04T11:13:43.973Z,98353.00
2018-09-04T11:16:13.879Z,98349.00
2018-09-04T11:18:43.345Z,98352.00
2018-09-04T11:21:12.819Z,98349.00
2018-09-04T11:23:42.426Z,98355.00
2018-09-04T11:26:12.028Z,98350.00
2018-09-04T11:28:47.965Z,98363.00
2018-09-04T11:31:17.377Z,98362.00
2018-09-04T11:33:47.157Z,98355.00
2018-09-04T11:36:31.364Z,98358.00
2018-09-04T11:39:00.706Z,98354.00
2018-09-04T11:41:30.870Z,98357.00
2018-09-04T11:44:00.312Z,98361.00
2018-09-04T11:46:29.808Z,98360.00
2018-09-04T11:48:59.787Z,98368.00
2018-09-04T11:51:29.625Z,98367.00
2018-09-04T11:53:59.205Z,98367.00
2018-09-04T11:56:28.681Z,98366.00
2018-09-04T11:58:58.168Z,98371.00
2018-09-04T12:01:29.944Z,98368.00
2018-09-04T12:03:59.524Z,98371.00
2018-09-04T12:06:29.999Z,98368.00
2018-09-04T12:09:00.123Z,98378.00
2018-09-04T12:11:29.621Z,98374.00
2018-09-04T12:13:59.927Z,98378.00
2018-09-04T12:16:29.703Z,98370.00
2018-09-04T12:18:59.185Z,98374.00
2018-09-04T12:21:28.644Z,98372.00
2018-09-04T12:23:58.431Z,98375.00
2018-09-04T12:26:28.427Z,98378.00
2018-09-04T12:28:57.741Z,98373.00
2018-09-04T12:31:27.378Z,98373.00
2018-09-04T12:33:56.964Z,98374.00
2018-09-04T12:36:27.372Z,98381.00
2018-09-04T12:38:56.842Z,98384.00
2018-09-04T12:41:27.478Z,98378.00
2018-09-04T12:43:57.021Z,98387.00
2018-09-04T12:46:30.038Z,98391.00
2018-09-04T12:49:00.404Z,98387.00
2018-09-04T12:51:30.226Z,98393.00
2018-09-04T12:54:00.600Z,98395.00
2018-09-04T12:56:30.500Z,98391.00
2018-09-04T12:58:59.980Z,98394.00
2018-09-04T13:01:30.240Z,98401.00
2018-09-04T13:03:59.705Z,98396.00
2018-09-04T13:06:29.186Z,98393.00
2018-09-04T13:08:59.163Z,98398.00
2018-09-04T13:11:28.704Z,98399.00
2018-09-04T13:13:58.245Z,98398.00
2018-09-04T13:16:27.921Z,98404.00
2018-09-04T13:18:57.849Z,98408.00
2018-09-04T13:21:27.743Z,98410.00
2018-09-04T13:23:57.519Z,98410.00
2018-09-04T13:26:27.166Z,98406.00
2018-09-04T13:28:56.755Z,98398.00
2018-09-04T13:31:26.202Z,98391.00
2018-09-04T13:33:56.292Z,98392.00
2018-09-04T13:36:26.430Z,98392.00
2018-09-04T13:38:55.968Z,98383.00
2018-09-04T13:41:30.660Z,98383.00
2018-09-04T13:44:00.265Z,98391.00
2018-09-04T13:46:30.205Z,98396.00
2018-09-04T13:48:59.888Z,98391.00
2018-09-04T13:51:30.334Z,98384.00
2018-09-04T13:53:59.887Z,98394.00
2018-09-04T13:56:29.449Z,98391.00
2018-09-04T13:58:58.882Z,98390.00
2018-09-04T14:01:28.364Z,98384.00
2018-09-04T14:03:57.819Z,98386.00
2018-09-04T14:06:27.618Z,98383.00
2018-09-04T14:08:57.624Z,98383.00
2018-09-04T14:11:27.663Z,98389.00
2018-09-04T14:13:57.137Z,98396.00
2018-09-04T14:16:27.386Z,98403.00
2018-09-04T14:18:56.889Z,98401.00
2018-09-04T14:21:26.226Z,98405.00
2018-09-04T14:23:56.325Z,98403.00
2018-09-04T14:26:26.225Z,98406.00
2018-09-04T14:29:07.612Z,98408.00
2018-09-04T14:31:25.727Z,98399.00
2018-09-04T14:33:55.825Z,98398.00
2018-09-04T14:36:25.475Z,98398.00
2018-09-04T14:38:56.065Z,98399.00
2018-09-04T14:41:26.545Z,98402.00
2018-09-04T14:43:57.284Z,98403.00
2018-09-04T14:46:26.804Z,98400.00
2018-09-04T14:48:56.989Z,98410.00
2018-09-04T14:51:26.665Z,98411.00
2018-09-04T14:53:57.565Z,98407.00
2018-09-04T14:56:27.069Z,98408.00
2018-09-04T14:58:58.445Z,98407.00
2018-09-04T15:01:28.026Z,98405.00
2018-09-04T15:03:57.446Z,98401.00
2018-09-04T15:06:27.047Z,98403.00
2018-09-04T15:08:56.654Z,98405.00
2018-09-04T15:11:26.273Z,98400.00
2018-09-04T15:13:56.455Z,98416.00
2018-09-04T15:16:28.213Z,98410.00
2018-09-04T15:18:58.065Z,98418.00
2018-09-04T15:21:27.633Z,98423.00
2018-09-04T15:23:58.257Z,98434.00
2018-09-04T15:26:28.088Z,98431.00
2018-09-04T15:28:59.473Z,98438.00
2018-09-04T15:31:29.967Z,98436.00
2018-09-04T15:34:01.573Z,98440.00
2018-09-04T15:36:32.033Z,98433.00
2018-09-04T15:39:05.253Z,98429.00
2018-09-04T15:41:36.253Z,98423.00
2018-09-04T15:44:06.815Z,98418.00
2018-09-04T15:46:37.033Z,98423.00
2018-09-04T15:49:12.178Z,98412.00
2018-09-04T15:51:41.773Z,98418.00
2018-09-04T15:54:12.133Z,98418.00
2018-09-04T15:56:42.250Z,98413.00
2018-09-04T15:59:11.868Z,98415.00
2018-09-04T16:01:41.585Z,98407.00
2018-09-04T16:04:14.376Z,98415.00
2018-09-04T16:06:45.178Z,98419.00
2018-09-04T16:09:15.326Z,98416.00
2018-09-04T16:11:47.586Z,98412.00
2018-09-04T16:14:17.846Z,98409.00
2018-09-04T16:16:50.185Z,98417.00
2018-09-04T16:19:19.985Z,98420.00
2018-09-04T16:21:49.966Z,98419.00
2018-09-04T16:24:20.945Z,98418.00
2018-09-04T16:26:50.794Z,98424.00
2018-09-04T16:29:21.185Z,98425.00
2018-09-04T16:31:51.952Z,98426.00
2018-09-04T16:34:21.580Z,98426.00
2018-09-04T16:36:52.787Z,98434.00
2018-09-04T16:39:24.324Z,98431.00
2018-09-04T16:42:02.157Z,98437.00
2018-09-04T16:44:34.576Z,98432.00
2018-09-04T16:47:05.151Z,98434.00
2018-09-04T16:49:43.200Z,98437.00
2018-09-04T16:52:14.430Z,98429.00
2018-09-04T16:54:45.554Z,98445.00
2018-09-04T16:57:16.604Z,98450.00
2018-09-04T16:59:47.517Z,98453.00
2018-09-04T17:02:28.857Z,98461.00
2018-09-04T17:04:59.353Z,98457.00
2018-09-04T17:07:30.617Z,98448.00
2018-09-04T17:10:06.220Z,98453.00
2018-09-04T17:12:50.796Z,98448.00
2018-09-04T17:15:21.417Z,98458.00
2018-09-04T17:17:51.537Z,98447.00
2018-09-04T17:20:24.358Z,98444.00
2018-09-04T17:22:57.653Z,98453.00
2018-09-04T17:25:32.727Z,98452.00
2018-09-04T17:28:04.120Z,98454.00
2018-09-04T17:30:36.060Z,98454.00
2018-09-04T17:36:48.284Z,98472.00
2018-09-04T17:39:21.077Z,98465.00
2018-09-04T17:41:52.397Z,98471.00
2018-09-04T17:44:25.517Z,98476.00
2018-09-04T17:46:57.572Z,98481.00
2018-09-04T17:50:06.117Z,98480.00
2018-09-04T17:52:43.916Z,98494.00
2018-09-04T17:55:16.557Z,98491.00
2018-09-04T17:57:48.137Z,98490.00
2018-09-04T18:00:19.600Z,98497.00
2018-09-04T18:02:50.077Z,98495.00
2018-09-04T18:05:26.237Z,98511.00
2018-09-04T18:08:08.716Z,98512.00
2018-09-04T18:10:39.977Z,98516.00
2018-09-04T18:13:13.578Z,98516.00
2018-09-04T18:15:47.095Z,98515.00
2018-09-04T18:18:31.556Z,98516.00
2018-09-04T18:21:07.936Z,98514.00
2018-09-04T18:23:41.597Z,98520.00
2018-09-04T18:26:23.117Z,98525.00
2018-09-04T18:29:02.638Z,98528.00
2018-09-04T18:31:36.678Z,98528.00
2018-09-04T18:34:13.356Z,98529.00
2018-09-04T18:36:44.540Z,98525.00
2018-09-04T18:39:40.636Z,98536.00
2018-09-04T18:42:20.056Z,98536.00
2018-09-04T18:45:06.917Z,98537.00
2018-09-04T19:06:46.297Z,98572.00
2018-09-04T19:12:18.991Z,98576.00
2018-09-04T19:18:02.450Z,98584.00
2018-09-04T19:20:57.172Z,98583.00
2018-09-04T19:23:32.610Z,98576.00
2018-09-04T19:26:34.891Z,98583.00
2018-09-04T19:29:37.492Z,98581.00
2018-09-04T19:32:21.493Z,98583.00
2018-09-04T19:34:59.110Z,98579.00
2018-09-04T19:38:19.471Z,98584.00
2018-09-04T19:40:51.770Z,98576.00
2018-09-04T19:48:04.191Z,98579.00
2018-09-04T19:50:44.051Z,98583.00
2018-09-04T19:53:17.171Z,98587.00
2018-09-04T19:56:00.071Z,98586.00
2018-09-04T19:58:45.831Z,98583.00
2018-09-04T20:01:22.511Z,98587.00
2018-09-04T20:03:55.272Z,98589.00
2018-09-04T20:06:33.930Z,98592.00
2018-09-04T20:12:09.870Z,98610.00
2018-09-04T20:20:09.730Z,98612.00
2018-09-04T20:22:52.472Z,98613.00
2018-09-04T20:25:23.601Z,98618.00
2018-09-04T20:28:10.666Z,98612.00
2018-09-04T20:31:02.671Z,98611.00
2018-09-04T20:36:40.952Z,98603.00
2018-09-04T20:39:12.393Z,98601.00
2018-09-04T20:41:45.450Z,98602.00
2018-09-04T20:47:38.291Z,98599.00
2018-09-04T20:50:11.030Z,98597.00
2018-09-04T20:52:41.650Z,98584.00
2018-09-04T20:55:13.990Z,98582.00
2018-09-04T20:57:55.901Z,98584.00
2018-09-04T21:00:43.311Z,98575.00
2018-09-04T21:03:29.131Z,98580.00
2018-09-04T21:06:15.191Z,98571.00
2018-09-04T21:09:01.010Z,98579.00
2018-09-04T21:11:37.792Z,98584.00
2018-09-04T21:14:07.531Z,98579.00
2018-09-04T21:16:39.730Z,98586.00
2018-09-04T21:19:09.572Z,98584.00
2018-09-04T21:21:40.991Z,98588.00
2018-09-04T21:24:11.370Z,98582.00
2018-09-04T21:26:51.471Z,98583.00
2018-09-04T21:29:22.630Z,98588.00
2018-09-04T21:31:54.730Z,98585.00
2018-09-04T21:34:25.010Z,98589.00
2018-09-04T21:37:10.126Z,98588.00
2018-09-04T21:39:40.337Z,98579.00
2018-09-04T21:42:10.843Z,98581.00
2018-09-04T21:44:40.390Z,98591.00
2018-09-04T21:47:09.845Z,98584.00
2018-09-04T21:49:39.351Z,98586.00
2018-09-04T21:52:08.970Z,98587.00
2018-09-04T21:54:38.470Z,98592.00
2018-09-04T21:57:08.071Z,98593.00
2018-09-04T21:59:38.489Z,98584.00
2018-09-04T22:02:08.165Z,98589.00
2018-09-04T22:04:37.645Z,98583.00
2018-09-04T22:07:07.345Z,98591.00
2018-09-04T22:09:37.679Z,98598.00
2018-09-04T22:12:22.705Z,98600.00
2018-09-04T22:14:52.226Z,98602.00
2018-09-04T22:17:21.766Z,98600.00
2018-09-04T22:19:51.345Z,98610.00
2018-09-04T22:22:21.005Z,98611.00
2018-09-04T22:24:50.455Z,98615.00
2018-09-04T22:27:20.146Z,98610.00
2018-09-04T22:29:49.826Z,98612.00
2018-09-04T22:32:19.926Z,98613.00
2018-09-04T22:34:49.580Z,98611.00
2018-09-04T22:37:19.226Z,98621.00
2018-09-04T22:39:48.808Z,98615.00
2018-09-04T22:42:18.355Z,98618.00
2018-09-04T22:44:47.885Z,98629.00
2018-09-04T22:47:17.566Z,98629.00
2018-09-04T22:49:52.526Z,98631.00
2018-09-04T22:52:26.446Z,98630.00
2018-09-04T22:55:04.925Z,98637.00
2018-09-04T22:57:34.946Z,98635.00
2018-09-04T23:00:04.609Z,98637.00
2018-09-04T23:02:34.066Z,98630.00
2018-09-04T23:05:03.665Z,98621.00
2018-09-04T23:07:33.346Z,98617.00
2018-09-04T23:10:03.043Z,98612.00
2018-09-04T23:12:32.526Z,98610.00
2018-09-04T23:15:02.100Z,98614.00
2018-09-04T23:17:31.946Z,98610.00
2018-09-04T23:20:01.585Z,98614.00
2018-09-04T23:22:31.166Z,98619.00
2018-09-04T23:25:00.626Z,98623.00
2018-09-04T23:27:30.065Z,98621.00
2018-09-04T23:29:59.569Z,98615.00
2018-09-04T23:32:29.106Z,98617.00
2018-09-04T23:34:58.786Z,98612.00
2018-09-04T23:37:28.345Z,98616.00
2018-09-04T23:39:58.026Z,98621.00
2018-09-04T23:42:32.465Z,98623.00
2018-09-04T23:45:03.629Z,98621.00
2018-09-04T23:47:33.623Z,98615.00
2018-09-04T23:50:03.326Z,98610.00
2018-09-04T23:52:33.226Z,98619.00
2018-09-04T23:55:03.106Z,98604.00
2018-09-04T23:57:32.705Z,98603.00
